Time;durP1;ratioP1;P1;durP2;ratioP2;P2;SDS_P1;SDS_P2;PMS_P1;PMS_P2;Temp;Humidity;BMP_temperature;BMP_pressure;BME280_temperature;BME280_humidity;BME280_pressure;Samples;Min_cycle;Max_cycle;Signal;HPM_P1;HPM_P2
2021/01/31 16:07:12;;;;;;;1999.90;999.90;;;-1.90;99.90;;;;;;5063994;28;20567;-45
2021/01/31 16:09:38;;;;;;;1999.90;999.90;;;-2.00;99.90;;;;;;5067151;28;20181;-45
2021/01/31 16:12:04;;;;;;;1999.90;999.90;;;-2.10;99.90;;;;;;5065717;28;20190;-46
2021/01/31 16:14:29;;;;;;;1999.90;999.90;;;-2.20;99.90;;;;;;5066083;28;20211;-46
2021/01/31 16:16:55;;;;;;;1999.90;999.90;;;-2.20;99.90;;;;;;5065333;28;21003;-46
2021/01/31 16:19:20;;;;;;;1999.90;999.90;;;-2.20;99.90;;;;;;5067680;28;20213;-46
2021/01/31 16:21:46;;;;;;;1999.90;999.90;;;-2.30;99.90;;;;;;5067622;28;20178;-46
2021/01/31 16:24:12;;;;;;;1999.90;999.90;;;-2.40;99.90;;;;;;5059770;28;20637;-46
2021/01/31 16:26:37;;;;;;;1999.90;999.90;;;-2.60;99.90;;;;;;5063701;28;20237;-46
2021/01/31 16:29:05;;;;;;;1999.90;999.90;;;-2.70;99.90;;;;;;5063336;28;20553;-46
2021/01/31 16:31:32;;;;;;;1999.90;999.90;;;-2.80;99.90;;;;;;5047792;28;20587;-46
2021/01/31 16:33:57;;;;;;;1999.90;999.90;;;-2.90;99.90;;;;;;5047643;28;20428;-46
2021/01/31 16:36:23;;;;;;;1999.90;999.90;;;-3.00;99.90;;;;;;5046945;28;20924;-46
2021/01/31 16:38:49;;;;;;;1999.90;999.90;;;-3.10;99.90;;;;;;5047340;28;20194;-46
2021/01/31 16:41:15;;;;;;;1999.90;999.90;;;-3.20;99.90;;;;;;5061817;28;20190;-47
2021/01/31 16:43:40;;;;;;;1999.90;999.90;;;-3.40;99.90;;;;;;5046905;28;20233;-47
2021/01/31 16:46:07;;;;;;;1999.90;999.90;;;-3.40;99.90;;;;;;5050300;28;20224;-47
2021/01/31 16:48:33;;;;;;;1999.90;999.90;;;-3.40;99.90;;;;;;5067170;28;20174;-47
2021/01/31 16:50:59;;;;;;;1999.90;999.90;;;-3.50;99.90;;;;;;5067140;28;20422;-47
2021/01/31 16:53:25;;;;;;;1999.90;999.90;;;-3.60;99.90;;;;;;5067016;28;20538;-46
2021/01/31 16:55:52;;;;;;;1999.90;999.90;;;-3.70;99.90;;;;;;5048234;28;20441;-46
2021/01/31 16:58:18;;;;;;;1999.90;999.90;;;-3.80;99.90;;;;;;5049842;28;20440;-47
2021/01/31 17:00:44;;;;;;;1999.90;999.90;;;-3.80;99.90;;;;;;5059736;28;20909;-47
2021/01/31 17:03:11;;;;;;;1999.90;999.90;;;-3.90;99.90;;;;;;5052796;28;20206;-47
2021/01/31 17:05:42;;;;;;;1999.90;999.90;;;-3.90;99.90;;;;;;5065857;28;20685;-48
2021/01/31 17:08:08;;;;;;;1999.90;999.90;;;-4.00;99.90;;;;;;5062842;28;20900;-47
2021/01/31 17:10:35;;;;;;;1999.90;999.90;;;-4.10;99.90;;;;;;5061288;28;20206;-46
2021/01/31 17:13:01;;;;;;;1999.90;999.90;;;-4.10;99.90;;;;;;5066381;28;20673;-47
2021/01/31 17:15:27;;;;;;;1999.90;999.90;;;-4.10;99.90;;;;;;5062096;28;20420;-46
2021/01/31 17:17:54;;;;;;;1999.90;999.90;;;-4.20;99.90;;;;;;5037185;28;20236;-46
2021/01/31 17:20:22;;;;;;;1999.90;999.90;;;-4.20;99.90;;;;;;5033276;28;20601;-47
2021/01/31 17:22:48;;;;;;;1999.90;999.90;;;-4.30;99.90;;;;;;5036558;28;20915;-47
2021/01/31 17:25:17;;;;;;;1999.90;999.90;;;-4.40;99.90;;;;;;5047922;28;20214;-46
2021/01/31 17:27:43;;;;;;;1999.90;999.90;;;-4.30;99.90;;;;;;5044866;28;20197;-47
2021/01/31 17:30:11;;;;;;;1999.90;999.90;;;-4.40;99.90;;;;;;5052928;28;20417;-46
2021/01/31 17:32:37;;;;;;;1999.90;999.90;;;-4.30;99.90;;;;;;5047299;28;20659;-46
2021/01/31 17:35:03;;;;;;;1999.90;999.90;;;-4.20;99.90;;;;;;5032633;28;20301;-46
2021/01/31 17:37:29;;;;;;;1999.90;999.90;;;-4.20;99.90;;;;;;5032707;28;20635;-46
2021/01/31 17:39:54;;;;;;;1999.90;999.90;;;-4.20;99.90;;;;;;5038556;28;20227;-46
2021/01/31 17:42:20;;;;;;;1999.90;999.90;;;-4.20;99.90;;;;;;5053104;28;20779;-46
2021/01/31 17:44:47;;;;;;;1999.90;999.90;;;-4.00;99.90;;;;;;5052021;28;20577;-46
2021/01/31 17:47:13;;;;;;;1999.90;999.90;;;-3.90;99.90;;;;;;5053064;28;20192;-46
2021/01/31 17:49:38;;;;;;;1999.90;999.90;;;-3.50;99.90;;;;;;5039620;28;20186;-45
2021/01/31 17:52:04;;;;;;;1999.90;999.90;;;-3.20;99.90;;;;;;5029035;28;21093;-44
2021/01/31 17:54:30;;;;;;;1999.90;999.90;;;-3.20;99.90;;;;;;5032913;28;20209;-45
2021/01/31 17:56:55;;;;;;;1999.90;999.90;;;-3.30;99.90;;;;;;5039827;28;20581;-45
2021/01/31 17:59:21;;;;;;;1999.90;999.90;;;-3.30;99.90;;;;;;5048686;28;20560;-44
2021/01/31 18:01:47;;;;;;;1999.90;999.90;;;-3.40;99.90;;;;;;5036698;28;20198;-44
2021/01/31 18:04:13;;;;;;;1999.90;999.90;;;-3.50;99.90;;;;;;5031738;28;20203;-44
2021/01/31 18:06:39;;;;;;;1999.90;999.90;;;-3.70;99.90;;;;;;5033830;28;20214;-45
2021/01/31 18:09:05;;;;;;;1999.90;999.90;;;-3.80;99.90;;;;;;5037080;28;20255;-44
2021/01/31 18:11:31;;;;;;;1999.90;999.90;;;-4.00;99.90;;;;;;5039611;28;20455;-44
2021/01/31 18:13:56;;;;;;;1999.90;999.90;;;-4.10;99.90;;;;;;5037738;28;20848;-44
2021/01/31 18:16:22;;;;;;;1999.90;999.90;;;-4.10;99.90;;;;;;5034312;28;20700;-45
2021/01/31 18:18:48;;;;;;;1999.90;999.90;;;-4.20;99.90;;;;;;5035281;28;20247;-44
2021/01/31 18:21:14;;;;;;;1999.90;999.90;;;-4.30;99.90;;;;;;5033969;28;20433;-44
2021/01/31 18:23:41;;;;;;;1999.90;999.90;;;-4.20;99.90;;;;;;5037711;28;20287;-45
2021/01/31 18:26:06;;;;;;;1999.90;999.90;;;-4.20;99.90;;;;;;5047205;28;20212;-44
2021/01/31 18:28:32;;;;;;;1999.90;999.90;;;-4.20;99.90;;;;;;5035476;28;20425;-45
2021/01/31 18:30:59;;;;;;;1999.90;999.90;;;-4.20;99.90;;;;;;5032397;28;20364;-45
2021/01/31 18:33:25;;;;;;;1999.90;999.90;;;-4.20;99.90;;;;;;5049862;28;20248;-45
2021/01/31 18:35:51;;;;;;;1999.90;999.90;;;-4.30;99.90;;;;;;5051128;28;20412;-44
2021/01/31 18:38:17;;;;;;;1999.90;999.90;;;-4.40;99.90;;;;;;5044009;28;20198;-45
2021/01/31 18:40:43;;;;;;;1999.90;999.90;;;-4.40;99.90;;;;;;5046051;28;20223;-45
2021/01/31 18:43:08;;;;;;;1999.90;999.90;;;-4.40;99.90;;;;;;5033579;28;20465;-44
2021/01/31 18:45:34;;;;;;;1999.90;999.90;;;-4.40;99.90;;;;;;5032197;28;20218;-45
2021/01/31 18:48:00;;;;;;;1999.90;999.90;;;-4.50;99.90;;;;;;5031064;28;20179;-45
2021/01/31 18:50:29;;;;;;;1999.90;999.90;;;-4.60;99.90;;;;;;5040456;28;20240;-45
2021/01/31 18:52:56;;;;;;;1999.90;999.90;;;-4.60;99.90;;;;;;5037383;28;20175;-46
2021/01/31 18:55:22;;;;;;;1999.90;999.90;;;-4.60;99.90;;;;;;5041597;28;20187;-45
2021/01/31 18:57:48;;;;;;;1999.90;999.90;;;-4.50;99.90;;;;;;5042756;28;20194;-45
2021/01/31 19:00:19;;;;;;;1999.90;999.90;;;-4.50;99.90;;;;;;5032925;28;20655;-45
2021/01/31 19:02:44;;;;;;;1999.90;999.90;;;-4.30;99.90;;;;;;5035608;28;20182;-45
2021/01/31 19:05:11;;;;;;;1999.90;999.90;;;-4.30;99.90;;;;;;5037399;28;20510;-46
2021/01/31 19:07:36;;;;;;;1999.90;999.90;;;-4.20;99.90;;;;;;5035522;28;20444;-46
2021/01/31 19:10:04;;;;;;;1999.90;999.90;;;-4.30;99.90;;;;;;5037329;28;20202;-46
2021/01/31 19:12:30;;;;;;;1999.90;999.90;;;-4.30;99.90;;;;;;5038537;28;20197;-46
2021/01/31 19:14:56;;;;;;;1999.90;999.90;;;-4.20;99.90;;;;;;5037865;28;20226;-46
2021/01/31 19:17:22;;;;;;;1999.90;999.90;;;-4.00;99.90;;;;;;5040277;28;20179;-46
2021/01/31 19:19:47;;;;;;;1999.90;999.90;;;-4.00;99.90;;;;;;5042342;28;20194;-45
2021/01/31 19:22:14;;;;;;;1999.90;999.90;;;-4.00;99.90;;;;;;5038749;28;20264;-45
2021/01/31 19:24:40;;;;;;;1999.90;999.90;;;-3.80;99.90;;;;;;5042329;28;20280;-45
2021/01/31 19:27:06;;;;;;;1999.90;999.90;;;-3.80;99.90;;;;;;5039285;28;20308;-45
2021/01/31 19:29:31;;;;;;;1999.90;999.90;;;-3.80;99.90;;;;;;5039104;28;20178;-46
2021/01/31 19:31:57;;;;;;;1999.90;999.90;;;-3.90;99.90;;;;;;5040384;28;20686;-45
2021/01/31 19:34:23;;;;;;;1999.90;999.90;;;-3.80;99.90;;;;;;5043168;28;20570;-45
2021/01/31 19:36:49;;;;;;;1999.90;999.90;;;-3.80;99.90;;;;;;5041043;28;20197;-45
2021/01/31 19:39:14;;;;;;;1999.90;999.90;;;-3.80;99.90;;;;;;5037098;28;20186;-44
2021/01/31 19:41:40;;;;;;;1999.90;999.90;;;-3.80;99.90;;;;;;5037888;28;20179;-45
2021/01/31 19:44:06;;;;;;;1999.90;999.90;;;-3.80;99.90;;;;;;5043807;28;20273;-45
2021/01/31 19:46:31;;;;;;;1999.90;999.90;;;-3.70;99.90;;;;;;5039265;28;20289;-46
2021/01/31 19:48:57;;;;;;;1999.90;999.90;;;-3.70;99.90;;;;;;5038349;28;20174;-46
2021/01/31 19:51:23;;;;;;;1999.90;999.90;;;-3.70;99.90;;;;;;5041591;28;20272;-46
2021/01/31 19:53:48;;;;;;;1999.90;999.90;;;-3.70;99.90;;;;;;5034378;28;20201;-46
2021/01/31 19:56:14;;;;;;;1999.90;999.90;;;-3.80;99.90;;;;;;5035562;28;20189;-46
2021/01/31 19:58:40;;;;;;;1999.90;999.90;;;-3.80;99.90;;;;;;5044967;28;20228;-47
2021/01/31 20:01:08;;;;;;;1999.90;999.90;;;-3.80;99.90;;;;;;5033898;28;20263;-46
2021/01/31 20:03:35;;;;;;;1999.90;999.90;;;-3.80;99.90;;;;;;5038015;28;21108;-46
2021/01/31 20:06:01;;;;;;;1999.90;999.90;;;-3.80;99.90;;;;;;5043672;28;20518;-47
2021/01/31 20:08:27;;;;;;;1999.90;999.90;;;-3.90;99.90;;;;;;5039580;28;20515;-47
2021/01/31 20:10:52;;;;;;;1999.90;999.90;;;-3.80;99.90;;;;;;5039022;28;21721;-46
2021/01/31 20:13:18;;;;;;;1999.90;999.90;;;-3.80;99.90;;;;;;5043171;28;20433;-46
2021/01/31 20:15:49;;;;;;;1999.90;999.90;;;-3.70;99.90;;;;;;5039704;28;20635;-46
2021/01/31 20:18:18;;;;;;;1999.90;999.90;;;-3.80;99.90;;;;;;5039829;28;20420;-46
